createdAt,value
2022-10-07T03:59:33.856Z,85.14
2022-10-07T04:02:36.407Z,85.14
2022-10-07T04:05:38.954Z,86.31
2022-10-07T04:08:41.437Z,86.52
2022-10-07T04:11:43.919Z,86.05
2022-10-07T04:14:46.612Z,86.30
2022-10-07T04:17:49.794Z,86.35
2022-10-07T04:20:52.609Z,86.16
2022-10-07T04:23:55.999Z,86.15
2022-10-07T04:26:58.110Z,85.85
2022-10-07T04:30:00.554Z,86.23
2022-10-07T04:33:02.870Z,85.60
2022-10-07T04:36:08.698Z,86.03
2022-10-07T04:39:11.992Z,84.69
2022-10-07T04:42:47.203Z,85.07
2022-10-07T04:45:53.255Z,85.35
2022-10-07T04:48:56.208Z,85.65
2022-10-07T04:51:58.746Z,85.76
2022-10-07T04:55:03.482Z,84.40
2022-10-07T04:58:06.553Z,84.97
2022-10-07T05:01:09.741Z,85.16
2022-10-07T05:04:13.036Z,85.12
2022-10-07T05:07:18.306Z,84.80
2022-10-07T05:10:21.827Z,84.66
2022-10-07T05:13:30.264Z,84.80
2022-10-07T05:16:32.929Z,84.33
2022-10-07T05:19:35.664Z,85.01
2022-10-07T05:22:39.549Z,85.46
2022-10-07T05:25:43.811Z,85.35
2022-10-07T05:28:48.601Z,85.89
2022-10-07T05:31:51.233Z,85.40
2022-10-07T05:34:53.544Z,86.34
2022-10-07T05:37:56.742Z,86.30
2022-10-07T05:41:01.121Z,86.18
2022-10-07T05:44:04.254Z,86.62
2022-10-07T05:47:06.385Z,86.62
2022-10-07T05:50:11.449Z,87.33
2022-10-07T05:53:15.755Z,87.41
2022-10-07T05:56:22.585Z,87.92
2022-10-07T05:59:25.119Z,87.78
2022-10-07T06:02:29.250Z,86.77
2022-10-07T06:05:32.209Z,87.82
2022-10-07T06:08:35.989Z,87.81
2022-10-07T06:11:57.196Z,87.83
2022-10-07T06:14:59.483Z,88.32
2022-10-07T06:18:01.945Z,88.16
2022-10-07T06:21:05.181Z,88.25
2022-10-07T06:24:07.801Z,88.35
2022-10-07T06:27:10.058Z,89.06
2022-10-07T06:30:13.117Z,90.12
2022-10-07T06:33:17.057Z,89.12
2022-10-07T06:36:20.105Z,88.08
2022-10-07T06:39:22.633Z,88.09
2022-10-07T06:42:25.866Z,87.16
2022-10-07T06:45:33.174Z,85.83
2022-10-07T06:48:36.235Z,86.35
2022-10-07T06:51:38.373Z,87.20
2022-10-07T06:54:40.826Z,86.08
2022-10-07T06:57:46.022Z,86.42
2022-10-07T07:00:50.099Z,86.41
2022-10-07T07:03:53.924Z,86.30
2022-10-07T07:06:56.791Z,86.84
2022-10-07T07:09:59.138Z,87.20
2022-10-07T07:16:09.529Z,86.92
2022-10-07T07:19:13.784Z,85.17
2022-10-07T07:22:16.217Z,83.59
2022-10-07T07:25:20.373Z,83.67
2022-10-07T07:28:22.783Z,82.28
2022-10-07T07:31:27.775Z,80.71
2022-10-07T07:34:30.260Z,79.98
2022-10-07T07:37:33.844Z,80.75
2022-10-07T07:40:39.751Z,79.21
2022-10-07T07:43:42.948Z,77.26
2022-10-07T07:46:49.123Z,77.42
2022-10-07T07:49:51.434Z,77.65
2022-10-07T07:52:57.337Z,76.40
2022-10-07T07:56:02.389Z,76.21
2022-10-07T07:59:06.472Z,75.01
2022-10-07T08:02:12.046Z,77.62
2022-10-07T08:05:14.682Z,75.12
2022-10-07T08:08:16.726Z,75.36
2022-10-07T08:11:21.196Z,74.39
2022-10-07T08:14:24.218Z,73.75
2022-10-07T08:17:29.451Z,73.13
2022-10-07T08:20:31.799Z,73.50
2022-10-07T08:23:44.035Z,71.94
2022-10-07T08:26:47.316Z,72.96
2022-10-07T08:29:50.132Z,73.11
2022-10-07T08:32:53.643Z,71.15
2022-10-07T08:35:59.939Z,73.31
2022-10-07T08:39:04.627Z,71.44
2022-10-07T08:42:16.833Z,72.71
2022-10-07T08:45:32.255Z,71.92
2022-10-07T08:48:38.854Z,72.85
2022-10-07T08:51:46.726Z,71.86
2022-10-07T08:54:49.485Z,71.39
2022-10-07T08:58:36.316Z,72.15
2022-10-07T09:01:59.915Z,71.83
2022-10-07T09:05:15.351Z,71.15
2022-10-07T09:08:24.349Z,71.52
2022-10-07T09:11:28.970Z,71.06
2022-10-07T09:14:38.380Z,71.67
2022-10-07T09:17:49.979Z,72.10
2022-10-07T09:20:54.943Z,71.73
2022-10-07T09:24:14.152Z,71.13
2022-10-07T09:27:20.620Z,70.75
2022-10-07T09:30:24.769Z,70.48
2022-10-07T09:33:29.677Z,73.37
2022-10-07T09:36:31.898Z,72.36
2022-10-07T09:39:34.302Z,72.05
2022-10-07T09:42:43.225Z,71.61
2022-10-07T09:45:46.989Z,71.41
2022-10-07T09:48:54.699Z,71.31
2022-10-07T09:52:16.015Z,70.46
2022-10-07T09:55:40.180Z,70.30
2022-10-07T09:58:42.762Z,70.91
2022-10-07T10:01:56.870Z,70.32
2022-10-07T10:04:59.240Z,70.75
2022-10-07T10:08:05.778Z,70.99
2022-10-07T10:11:20.385Z,70.03
2022-10-07T10:14:41.214Z,70.94
2022-10-07T10:17:43.810Z,69.90
2022-10-07T10:20:46.373Z,70.65
2022-10-07T10:24:06.580Z,70.15
2022-10-07T10:27:30.191Z,69.29
2022-10-07T10:30:41.232Z,69.56
2022-10-07T10:33:50.218Z,69.84
2022-10-07T10:37:01.413Z,68.86
2022-10-07T10:40:25.343Z,69.92
2022-10-07T10:43:58.141Z,69.64
2022-10-07T10:47:12.694Z,67.78
2022-10-07T10:50:49.050Z,67.21
2022-10-07T10:54:02.646Z,67.97
2022-10-07T10:57:35.587Z,68.67
2022-10-07T11:00:55.304Z,67.73
2022-10-07T11:04:39.020Z,67.00
2022-10-07T11:08:01.990Z,65.50
2022-10-07T11:11:16.577Z,66.39
2022-10-07T11:14:22.621Z,67.19
2022-10-07T11:17:30.683Z,66.01
2022-10-07T11:20:39.925Z,65.54
2022-10-07T11:24:01.964Z,64.51
2022-10-07T11:27:22.362Z,65.47
2022-10-07T11:30:29.003Z,64.66
2022-10-07T11:33:46.359Z,64.42
2022-10-07T11:37:03.716Z,65.17
2022-10-07T11:40:07.803Z,64.04
2022-10-07T11:43:30.284Z,63.66
2022-10-07T11:46:51.026Z,64.02
2022-10-07T11:50:05.377Z,63.76
2022-10-07T11:53:28.794Z,62.74
2022-10-07T11:56:44.567Z,63.60
2022-10-07T12:00:21.699Z,64.54
2022-10-07T12:03:25.049Z,64.94
2022-10-07T12:06:27.450Z,66.28
2022-10-07T12:09:55.794Z,65.00
2022-10-07T12:13:08.220Z,65.33
2022-10-07T12:16:32.028Z,65.57
2022-10-07T12:19:34.105Z,64.08
2022-10-07T12:22:36.440Z,66.10
2022-10-07T12:25:45.550Z,65.04
2022-10-07T12:28:48.745Z,64.72
2022-10-07T12:31:50.932Z,63.74
2022-10-07T12:34:53.464Z,64.14
2022-10-07T12:38:14.198Z,65.75
2022-10-07T12:41:25.032Z,63.53
2022-10-07T12:44:38.555Z,63.83
2022-10-07T12:47:42.653Z,62.44
2022-10-07T12:50:47.161Z,62.06
2022-10-07T12:53:51.867Z,64.32
2022-10-07T12:56:54.207Z,64.15
2022-10-07T13:00:12.325Z,63.79
2022-10-07T13:03:36.475Z,63.67
2022-10-07T13:07:00.590Z,65.41
2022-10-07T13:10:37.716Z,63.74
2022-10-07T13:13:47.839Z,63.23
2022-10-07T13:17:15.580Z,64.87
2022-10-07T13:20:52.901Z,66.68
2022-10-07T13:23:55.941Z,63.90
2022-10-07T13:26:59.301Z,65.02
2022-10-07T13:30:04.003Z,63.87
2022-10-07T13:33:19.157Z,63.30
2022-10-07T13:36:29.807Z,63.97
2022-10-07T13:39:32.162Z,64.76
2022-10-07T13:42:35.194Z,63.69
2022-10-07T13:45:44.980Z,64.55
2022-10-07T13:48:48.929Z,62.79
2022-10-07T13:51:56.273Z,62.76
2022-10-07T13:54:58.566Z,64.01
2022-10-07T13:58:05.353Z,65.15
2022-10-07T14:01:07.783Z,64.09
2022-10-07T14:04:23.313Z,63.75
2022-10-07T14:07:28.122Z,63.40
2022-10-07T14:10:31.267Z,64.04
2022-10-07T14:13:35.423Z,64.02
2022-10-07T14:16:38.055Z,63.54
2022-10-07T14:19:40.344Z,62.90
2022-10-07T14:22:46.353Z,63.81
2022-10-07T14:25:48.397Z,63.61
2022-10-07T14:28:50.697Z,64.54
2022-10-07T14:32:29.415Z,63.27
2022-10-07T14:35:33.958Z,62.94
2022-10-07T14:38:36.280Z,61.75
2022-10-07T14:41:38.575Z,62.48
2022-10-07T14:44:44.128Z,62.98
2022-10-07T14:47:46.601Z,63.51
2022-10-07T14:50:49.356Z,66.48
2022-10-07T14:53:55.763Z,64.75
2022-10-07T14:56:57.801Z,63.63
2022-10-07T15:00:00.388Z,63.98
2022-10-07T15:03:02.894Z,63.38
2022-10-07T15:06:06.508Z,65.44
2022-10-07T15:09:11.874Z,63.56
2022-10-07T15:12:15.988Z,64.17
2022-10-07T15:15:18.606Z,64.18
2022-10-07T15:18:22.078Z,63.93
